Time;durP1;ratioP1;P1;durP2;ratioP2;P2;SDS_P1;SDS_P2;PMS_P1;PMS_P2;Temp;Humidity;BMP_temperature;BMP_pressure;BME280_temperature;BME280_humidity;BME280_pressure;Samples;Min_cycle;Max_cycle;Signal;HPM_P1;HPM_P2
2021/07/23 00:01:56;;;;;;;2.80;2.70;;;20.50;99.90;;;20.79;61.73;102004.66;4938817;29;20075;-69
2021/07/23 00:04:24;;;;;;;2.42;2.33;;;20.50;99.90;;;20.75;62.17;102001.16;4938417;29;20068;-69
2021/07/23 00:06:52;;;;;;;2.30;2.20;;;20.50;99.90;;;20.80;62.20;102001.91;4938682;29;20044;-69
2021/07/23 00:09:21;;;;;;;2.35;2.25;;;20.50;99.90;;;20.79;62.29;101996.59;4921636;29;20048;-68
2021/07/23 00:11:52;;;;;;;2.38;2.28;;;20.50;99.90;;;20.79;62.17;102002.81;4938384;29;20043;-69
2021/07/23 00:14:21;;;;;;;2.17;2.08;;;20.50;99.90;;;20.76;62.29;102007.41;4921571;29;20107;-68
2021/07/23 00:16:51;;;;;;;2.58;2.47;;;20.50;99.90;;;20.73;62.27;102011.06;4938276;29;20424;-68
2021/07/23 00:19:19;;;;;;;2.78;2.67;;;20.40;99.90;;;20.58;62.39;101976.53;4921354;29;20044;-68
2021/07/23 00:21:47;;;;;;;2.42;2.33;;;20.40;99.90;;;20.68;62.59;101997.78;4938114;29;20099;-69
2021/07/23 00:24:16;;;;;;;2.13;2.03;;;20.30;99.90;;;20.66;62.65;102005.00;4938181;29;20078;-68
2021/07/23 00:26:51;;;;;;;2.40;2.30;;;20.30;99.90;;;20.66;62.73;102006.78;4938579;29;20107;-68
2021/07/23 00:29:21;;;;;;;2.13;2.03;;;20.30;99.90;;;20.61;62.82;101998.84;4938038;29;20560;-68
2021/07/23 00:31:51;;;;;;;2.50;2.40;;;20.30;99.90;;;20.61;62.76;102001.53;4938227;29;20040;-68
2021/07/23 00:34:20;;;;;;;2.20;2.10;;;20.30;99.90;;;20.63;62.86;101997.00;4920906;29;20139;-68
2021/07/23 00:36:48;;;;;;;2.60;2.50;;;20.30;99.90;;;20.63;62.89;102005.06;4921161;29;20494;-68
2021/07/23 00:39:16;;;;;;;2.50;2.40;;;20.30;99.90;;;20.66;63.02;102006.78;4938136;29;20047;-68
2021/07/23 00:41:48;;;;;;;2.80;2.70;;;20.30;99.90;;;20.60;63.23;101997.09;4938396;29;20112;-69
2021/07/23 00:44:16;;;;;;;2.35;2.25;;;20.30;99.90;;;20.51;62.90;101977.66;4920997;29;20071;-68
2021/07/23 00:46:47;;;;;;;2.55;2.45;;;20.30;99.90;;;20.64;63.02;102001.47;4920980;29;20055;-69
2021/07/23 00:49:17;;;;;;;2.38;2.28;;;20.30;99.90;;;20.60;63.09;101999.78;4937858;29;20099;-69
2021/07/23 00:51:46;;;;;;;2.28;2.17;;;20.30;99.90;;;20.61;63.26;101990.78;4920880;29;20055;-68
2021/07/23 00:54:15;;;;;;;2.35;2.25;;;20.30;99.90;;;20.53;63.17;101991.94;4920726;29;20078;-68
2021/07/23 00:56:44;;;;;;;2.53;2.42;;;20.20;99.90;;;20.22;63.20;101948.88;4920796;29;20048;-68
2021/07/23 00:59:16;;;;;;;2.38;2.28;;;20.20;99.90;;;20.51;63.52;101993.78;4937779;29;20063;-68
2021/07/23 01:01:46;;;;;;;2.20;2.10;;;20.20;99.90;;;20.51;63.40;101994.66;4920489;29;20079;-69
2021/07/23 01:04:17;;;;;;;2.40;2.30;;;20.10;99.90;;;20.50;63.62;101998.28;4937812;29;20127;-68
2021/07/23 01:06:50;;;;;;;2.55;2.45;;;20.20;99.90;;;20.49;63.62;101995.63;4920648;29;20056;-69
2021/07/23 01:09:19;;;;;;;2.20;2.10;;;20.20;99.90;;;20.42;63.99;101994.03;4920526;29;20402;-68
2021/07/23 01:11:49;;;;;;;2.20;2.10;;;20.10;99.90;;;20.43;64.06;101998.47;4937439;29;20052;-68
2021/07/23 01:14:29;;;;;;;;;;;20.10;99.90;;;20.39;63.78;101991.41;4920920;29;20050;-69
2021/07/23 01:16:58;;;;;;;2.42;2.33;;;20.10;99.90;;;20.47;63.75;101995.69;4920654;29;19923;-68
2021/07/23 01:19:40;;;;;;;2.00;1.90;;;20.10;99.90;;;20.42;63.50;102000.28;4937149;29;20457;-68
2021/07/23 01:22:10;;;;;;;2.78;2.67;;;20.10;99.90;;;20.38;63.94;101997.72;4919810;29;20055;-68
2021/07/23 01:24:41;;;;;;;2.28;2.17;;;20.00;99.90;;;20.31;64.25;101994.31;4937372;29;20056;-68
2021/07/23 01:27:10;;;;;;;2.67;2.58;;;19.90;99.90;;;20.38;64.21;101990.53;4920254;29;20473;-68
2021/07/23 01:30:07;;;;;;;2.30;2.20;;;20.00;99.90;;;20.30;64.33;101983.63;4919554;29;20055;-68
2021/07/23 01:32:38;;;;;;;2.75;2.65;;;20.00;99.90;;;20.32;64.39;101998.78;4919899;29;20082;-68
2021/07/23 01:35:10;;;;;;;3.13;3.03;;;19.90;99.90;;;20.43;63.99;101998.47;4920103;29;20052;-68
2021/07/23 01:37:41;;;;;;;2.28;2.17;;;20.00;99.90;;;20.44;64.02;102001.13;4920018;29;20063;-68
2021/07/23 01:40:16;;;;;;;2.40;2.30;;;20.10;99.90;;;20.45;63.83;101999.31;4919723;29;20079;-68
2021/07/23 01:42:48;;;;;;;2.25;2.15;;;20.10;99.90;;;20.16;64.05;101986.63;4919986;29;20052;-68
2021/07/23 01:45:17;;;;;;;2.33;2.22;;;20.00;99.90;;;19.82;64.08;102011.69;4919863;29;20079;-69
2021/07/23 01:48:08;;;;;;;2.38;2.28;;;19.60;99.90;;;19.76;65.56;102002.84;4936392;29;20063;-68
2021/07/23 01:50:40;;;;;;;2.35;2.25;;;19.40;99.90;;;19.78;65.35;102003.69;4920067;29;20048;-68
2021/07/23 01:53:08;;;;;;;4.80;4.55;;;19.40;99.90;;;19.72;65.72;102005.66;4936877;29;20067;-68
2021/07/23 01:55:54;;;;;;;2.30;2.20;;;19.30;99.90;;;19.78;65.91;102000.16;4919920;29;20077;-68
2021/07/23 01:58:23;;;;;;;2.35;2.25;;;19.30;99.90;;;19.74;65.57;101999.31;4920034;29;20055;-68
2021/07/23 02:00:57;;;;;;;;;;;19.40;99.90;;;19.70;65.77;101994.06;4920159;29;20048;-68
2021/07/23 02:03:30;;;;;;;2.78;2.67;;;19.30;99.90;;;19.64;66.06;101996.91;4919554;29;19922;-68
2021/07/23 02:06:01;;;;;;;2.35;2.25;;;19.30;99.90;;;19.65;66.35;101980.75;4919585;29;20074;-68
2021/07/23 02:08:33;;;;;;;2.33;2.22;;;19.30;99.90;;;19.10;66.53;101902.44;4919189;29;20052;-68
2021/07/23 02:11:06;;;;;;;2.53;2.42;;;19.20;99.90;;;19.64;66.59;101994.22;4919492;29;20058;-68
2021/07/23 02:13:36;;;;;;;2.22;2.13;;;19.20;99.90;;;19.68;66.44;101993.22;4919519;29;20048;-68
2021/07/23 02:16:06;;;;;;;2.67;2.58;;;19.20;99.90;;;19.50;66.70;101967.69;4919446;29;20062;-68
2021/07/23 02:18:34;;;;;;;2.45;2.35;;;19.20;99.90;;;19.62;66.84;101990.69;4936144;29;20043;-69
2021/07/23 02:21:09;;;;;;;2.50;2.40;;;19.20;99.90;;;19.61;66.78;101983.53;4919381;29;20078;-69
2021/07/23 02:23:38;;;;;;;2.35;2.25;;;19.30;99.90;;;19.61;66.91;101983.53;4919107;29;20154;-68
2021/07/23 02:26:18;;;;;;;2.50;2.40;;;19.20;99.90;;;19.60;66.98;101988.03;4936046;29;20044;-68
2021/07/23 02:28:49;;;;;;;2.45;2.35;;;19.20;99.90;;;19.63;67.05;101985.25;4919222;29;20075;-69
2021/07/23 02:31:18;;;;;;;2.13;2.03;;;19.20;99.90;;;19.61;67.17;101984.41;4936291;29;20409;-68
2021/07/23 02:33:58;;;;;;;2.25;2.15;;;19.20;99.90;;;19.59;67.30;101980.00;4936463;29;20046;-68
2021/07/23 02:36:32;;;;;;;2.47;2.38;;;19.20;99.90;;;19.63;67.05;101977.22;4919152;29;20051;-68
2021/07/23 02:39:01;;;;;;;2.60;2.50;;;19.20;99.90;;;19.46;67.37;101938.25;4919152;29;20398;-68
2021/07/23 02:41:34;;;;;;;2.30;2.20;;;19.30;99.90;;;19.64;67.16;101970.94;4919095;29;20055;-68
2021/07/23 02:44:04;;;;;;;2.15;2.05;;;19.30;99.90;;;19.64;67.00;101970.94;4918489;29;20055;-68
2021/07/23 02:46:32;;;;;;;2.13;2.03;;;19.30;99.90;;;19.63;67.20;101969.16;4919252;29;20140;-68
2021/07/23 02:49:02;;;;;;;2.25;2.15;;;19.30;99.90;;;19.64;67.22;101967.38;4919013;29;20052;-68
2021/07/23 02:51:32;;;;;;;2.58;2.47;;;19.30;99.90;;;19.71;67.04;101977.03;4935899;29;20058;-68
2021/07/23 02:54:04;;;;;;;2.20;2.10;;;19.30;99.90;;;19.74;66.64;101976.97;4919054;29;20086;-68
2021/07/23 02:56:39;;;;;;;2.40;2.30;;;19.40;99.90;;;19.79;66.53;101977.72;4935760;29;20039;-68
2021/07/23 02:59:07;;;;;;;2.65;2.55;;;19.40;99.90;;;19.76;66.38;101969.75;4936023;29;20099;-68
2021/07/23 03:01:38;;;;;;;2.40;2.30;;;19.40;99.90;;;19.84;66.30;101965.06;4935973;29;20044;-68
2021/07/23 03:04:10;;;;;;;2.30;2.20;;;19.50;99.90;;;19.81;66.42;101962.47;4918625;29;20048;-68
2021/07/23 03:06:40;;;;;;;2.67;2.58;;;19.50;99.90;;;19.83;66.31;101965.09;4918972;29;20099;-69
2021/07/23 03:09:12;;;;;;;2.20;2.10;;;19.50;99.90;;;19.84;66.30;101962.38;4918539;29;20075;-68
2021/07/23 03:11:47;;;;;;;2.53;2.42;;;19.50;99.90;;;19.75;66.24;101957.22;4918891;29;20490;-68
2021/07/23 03:14:16;;;;;;;2.38;2.28;;;19.50;99.90;;;19.76;66.26;101959.88;4935870;29;20143;-68
2021/07/23 03:16:57;;;;;;;2.50;2.40;;;19.40;99.90;;;19.76;66.72;101965.25;4918737;29;20052;-68
2021/07/23 03:19:28;;;;;;;2.65;2.55;;;19.40;99.90;;;19.75;66.36;101950.06;4935529;29;20494;-68
2021/07/23 03:21:56;;;;;;;2.38;2.28;;;19.40;99.90;;;19.74;66.10;101950.13;4918624;29;20052;-68
2021/07/23 03:24:28;;;;;;;2.53;2.42;;;19.40;99.90;;;19.75;66.17;101947.38;4919039;29;20055;-68
2021/07/23 03:27:01;;;;;;;2.35;2.25;;;19.40;99.90;;;19.72;66.28;101952.81;4918786;29;20047;-68
2021/07/23 03:29:30;;;;;;;2.58;2.47;;;19.40;99.90;;;19.76;66.04;101948.28;4918565;29;20075;-68
2021/07/23 03:31:59;;;;;;;2.50;2.40;;;19.40;99.90;;;19.71;65.97;101940.31;4935446;29;20091;-68
2021/07/23 03:34:32;;;;;;;2.22;2.13;;;19.40;99.90;;;19.62;65.97;101931.63;4918318;29;20053;-68
2021/07/23 03:37:06;;;;;;;2.42;2.33;;;19.30;99.90;;;19.58;65.96;101941.56;4935717;29;20051;-68
2021/07/23 03:39:50;;;;;;;2.30;2.20;;;19.20;99.90;;;19.56;66.47;101939.81;4935362;29;20059;-68
2021/07/23 03:42:24;;;;;;;2.38;2.28;;;19.20;99.90;;;19.53;66.67;101938.06;4935436;29;20035;-68
2021/07/23 03:45:19;;;;;;;2.60;2.50;;;19.20;99.90;;;19.53;66.95;101939.91;4934209;29;20406;-68
2021/07/23 03:47:54;;;;;;;2.33;2.22;;;19.10;99.90;;;19.49;67.17;101927.47;4935619;29;20087;-68
2021/07/23 03:50:23;;;;;;;2.10;2.00;;;19.20;99.90;;;19.46;66.84;101936.47;4935789;29;20051;-68
2021/07/23 03:52:59;;;;;;;2.70;2.60;;;19.10;99.90;;;19.44;66.58;101938.31;4918161;29;20056;-68
2021/07/23 03:55:46;;;;;;;2.47;2.38;;;19.10;99.90;;;19.47;66.75;101934.69;4938976;29;20055;-68
2021/07/23 03:58:36;;;;;;;2.60;2.50;;;19.10;99.90;;;19.41;66.90;101930.34;4921767;29;20527;-68
2021/07/23 04:01:07;;;;;;;2.50;2.40;;;19.00;99.90;;;19.30;67.24;101920.75;4938862;29;20138;-68
2021/07/23 04:03:38;;;;;;;2.58;2.47;;;19.00;99.90;;;19.36;66.99;101936.72;4921504;29;20043;-68
2021/07/23 04:06:09;;;;;;;2.60;2.50;;;19.00;99.90;;;19.35;66.94;101926.91;4921818;29;20116;-69
2021/07/23 04:08:39;;;;;;;2.88;2.78;;;19.00;99.90;;;19.43;67.12;101936.56;4921681;29;20047;-68
2021/07/23 04:11:14;;;;;;;2.40;2.30;;;19.00;99.90;;;19.66;66.51;101934.19;4921597;29;20505;-68
2021/07/23 04:13:44;;;;;;;2.38;2.28;;;19.20;99.90;;;19.53;66.91;101929.16;4921541;29;20146;-68
2021/07/23 04:16:14;;;;;;;2.50;2.40;;;19.20;99.90;;;19.53;67.74;101924.66;4921124;29;20059;-68
2021/07/23 04:18:44;;;;;;;;;;;19.20;99.90;;;19.61;68.81;101922.66;4921944;29;20056;-68
2021/07/23 04:21:31;;;;;;;2.70;2.60;;;19.30;99.90;;;19.71;67.97;101929.59;4921456;29;20321;-68
2021/07/23 04:24:06;;;;;;;2.80;2.70;;;19.30;99.90;;;19.66;68.30;101918.09;4934941;29;20066;-68
2021/07/23 04:26:36;;;;;;;2.60;2.50;;;19.40;99.90;;;19.39;68.33;101899.97;4937139;29;20142;-68
2021/07/23 04:29:06;;;;;;;2.70;2.60;;;19.20;99.90;;;19.34;68.33;101922.44;4937096;29;20054;-68
2021/07/23 04:31:34;;;;;;;2.33;2.23;;;19.00;99.90;;;19.27;69.98;101921.69;4938350;29;20303;-68
2021/07/23 04:34:04;;;;;;;2.55;2.45;;;19.00;99.90;;;19.27;70.14;101921.69;4937844;29;20044;-68
2021/07/23 04:36:35;;;;;;;2.38;2.28;;;18.90;99.90;;;19.17;70.07;101909.41;4938209;29;20054;-68
2021/07/23 04:39:16;;;;;;;2.72;2.63;;;18.90;99.90;;;19.19;70.45;101923.66;4936988;29;20048;-68
2021/07/23 04:41:44;;;;;;;2.63;2.53;;;18.80;99.90;;;19.11;70.26;101922.94;4936713;29;20058;-68
2021/07/23 04:44:14;;;;;;;2.10;2.00;;;18.80;99.90;;;19.13;70.59;101926.47;4936861;29;20134;-68
2021/07/23 04:46:46;;;;;;;2.30;2.20;;;18.70;99.90;;;19.12;70.30;101918.47;4937756;29;20052;-68
2021/07/23 04:49:15;;;;;;;2.30;2.20;;;18.70;99.90;;;19.04;70.52;101913.28;4936433;29;20060;-68
2021/07/23 04:51:44;;;;;;;2.53;2.42;;;18.70;99.90;;;19.09;71.02;101910.47;4936706;29;20107;-68
2021/07/23 04:54:33;;;;;;;2.58;2.47;;;18.70;99.90;;;19.19;71.34;101912.03;4937954;29;20450;-68
2021/07/23 04:57:26;;;;;;;2.25;2.15;;;18.80;99.90;;;19.18;72.04;101915.66;4937641;29;20576;-68
2021/07/23 04:59:57;;;;;;;2.58;2.47;;;18.80;99.90;;;19.18;72.79;101915.66;4936538;29;20052;-69
2021/07/23 05:02:25;;;;;;;2.47;2.37;;;18.80;99.90;;;19.34;72.17;101906.34;4937936;29;20553;-68
2021/07/23 05:04:55;;;;;;;2.72;2.63;;;18.90;99.90;;;19.32;71.88;101913.50;4937087;29;20358;-68
2021/07/23 05:07:23;;;;;;;2.50;2.40;;;19.00;99.90;;;19.34;72.02;101914.41;4935933;29;20051;-69
2021/07/23 05:09:52;;;;;;;2.30;2.20;;;18.90;99.90;;;19.35;72.31;101918.84;4936280;29;20044;-68
2021/07/23 05:12:22;;;;;;;2.65;2.55;;;19.00;99.90;;;19.48;72.87;101918.53;4936316;29;20517;-68
2021/07/23 05:14:52;;;;;;;2.60;2.50;;;19.00;99.90;;;19.39;71.44;101920.56;4936294;29;20056;-68
2021/07/23 05:17:23;;;;;;;2.70;2.60;;;19.00;99.90;;;19.35;70.46;101918.84;4937471;29;20055;-68
2021/07/23 05:19:52;;;;;;;3.40;3.22;;;19.00;99.90;;;18.90;70.95;101918.06;4937384;29;20052;-68
2021/07/23 05:22:21;;;;;;;2.55;2.45;;;18.60;99.90;;;18.87;72.00;101916.31;4935783;29;20508;-68
2021/07/23 05:24:49;;;;;;;2.42;2.33;;;18.50;99.90;;;18.97;71.73;101919.69;4937375;29;20047;-68
2021/07/23 05:27:18;;;;;;;2.92;2.83;;;18.50;99.90;;;19.03;71.16;101918.69;4937273;29;20048;-68
2021/07/23 05:29:47;;;;;;;2.40;2.30;;;18.60;99.90;;;19.07;70.81;101918.56;4937182;29;20098;-68
2021/07/23 05:32:15;;;;;;;3.08;2.97;;;18.80;99.90;;;18.97;70.49;101916.16;4937169;29;20118;-68
2021/07/23 05:34:45;;;;;;;2.72;2.63;;;18.60;99.90;;;18.86;71.44;101919.94;4919956;29;20040;-68
2021/07/23 05:37:15;;;;;;;3.97;3.73;;;18.60;99.90;;;18.83;71.38;101914.63;4937078;29;20111;-68
2021/07/23 05:39:44;;;;;;;;;;;18.50;99.90;;;18.97;70.86;101911.63;4937755;29;20303;-68
2021/07/23 05:42:12;;;;;;;3.05;2.95;;;18.60;99.90;;;18.76;70.22;101907.63;4936990;29;19923;-68
2021/07/23 05:44:41;;;;;;;2.40;2.30;;;18.50;99.90;;;18.20;70.17;101781.09;4937012;29;20063;-68
2021/07/23 05:47:09;;;;;;;2.63;2.53;;;18.50;99.90;;;18.50;71.08;101903.75;4936713;29;20436;-68
2021/07/23 05:49:39;;;;;;;2.38;2.28;;;18.20;99.90;;;18.37;72.04;101900.38;4936847;29;20044;-68
2021/07/23 05:52:10;;;;;;;2.63;2.53;;;18.10;99.90;;;18.76;71.59;101904.06;4936754;29;20127;-68
2021/07/23 05:54:39;;;;;;;3.23;3.03;;;18.40;99.90;;;18.73;71.11;101901.47;4936858;29;20066;-68
2021/07/23 05:57:07;;;;;;;2.65;2.55;;;18.40;99.90;;;18.87;70.71;101905.59;4936712;29;20048;-68
2021/07/23 05:59:35;;;;;;;2.55;2.45;;;18.60;99.90;;;18.82;70.81;101896.78;4919599;29;20126;-68
2021/07/23 06:02:04;;;;;;;3.03;2.92;;;18.50;99.90;;;18.66;71.07;101898.03;4919567;29;20051;-68
2021/07/23 06:04:34;;;;;;;3.70;3.50;;;18.40;99.90;;;18.36;72.91;101887.03;4936787;29;20044;-68
2021/07/23 06:07:05;;;;;;;10.57;4.65;;;18.10;99.90;;;18.42;72.51;101889.59;4936493;29;20052;-68
2021/07/23 06:09:34;;;;;;;;;;;18.10;99.90;;;18.54;72.53;101895.59;4937084;29;20051;-68
2021/07/23 06:12:04;;;;;;;3.22;3.13;;;18.10;99.90;;;18.02;74.05;101873.41;4936437;29;19970;-68
2021/07/23 06:14:32;;;;;;;3.58;3.38;;;17.90;99.90;;;18.00;74.41;101880.59;4936502;29;20174;-68
2021/07/23 06:17:01;;;;;;;2.45;2.35;;;17.80;99.90;;;18.36;74.62;101876.31;4936291;29;20051;-68
2021/07/23 06:19:30;;;;;;;9.40;3.22;;;17.90;99.90;;;18.39;73.92;101885.16;4936392;29;20055;-68
2021/07/23 06:21:58;;;;;;;2.80;2.70;;;18.00;99.90;;;18.37;74.30;101878.94;4936103;29;20073;-68
2021/07/23 06:24:26;;;;;;;2.45;2.35;;;18.00;99.90;;;18.63;73.40;101882.03;4918989;29;20055;-68
2021/07/23 06:26:56;;;;;;;2.78;2.67;;;18.30;99.90;;;18.37;73.70;101880.75;4919073;29;20051;-68
2021/07/23 06:29:28;;;;;;;3.73;3.53;;;18.10;99.90;;;18.20;73.65;101883.75;4935873;29;20399;-68
2021/07/23 06:31:58;;;;;;;4.13;3.72;;;18.00;99.90;;;17.88;74.56;101854.03;4936349;29;20303;-68
2021/07/23 06:34:27;;;;;;;3.42;3.22;;;17.70;99.90;;;18.01;75.58;101880.56;4936013;29;20043;-68
2021/07/23 06:36:55;;;;;;;2.95;2.85;;;17.60;99.90;;;18.39;75.38;101895.03;4936275;29;20087;-68
2021/07/23 06:39:29;;;;;;;2.42;2.33;;;18.00;99.90;;;18.54;74.44;101875.97;4936247;29;20047;-68
2021/07/23 06:42:00;;;;;;;3.50;3.30;;;18.10;99.90;;;18.43;74.95;101881.53;4919161;29;20051;-68
2021/07/23 06:44:30;;;;;;;2.72;2.63;;;18.10;99.90;;;17.83;75.34;101786.31;4935886;29;20493;-68
2021/07/23 06:46:59;;;;;;;2.75;2.65;;;18.00;99.90;;;18.53;74.72;101883.13;4936292;29;20043;-68
2021/07/23 06:49:27;;;;;;;3.20;3.10;;;18.20;99.90;;;18.78;73.71;101888.84;4935669;29;20402;-68
2021/07/23 06:51:55;;;;;;;3.47;3.28;;;18.40;99.90;;;18.77;74.51;101889.75;4918719;29;20062;-68
2021/07/23 06:54:24;;;;;;;2.83;2.70;;;18.40;99.90;;;18.87;74.35;101894.88;4936242;29;20050;-68
2021/07/23 06:56:53;;;;;;;3.05;2.95;;;18.50;99.90;;;18.62;73.84;101895.47;4935630;29;20118;-67
2021/07/23 06:59:23;;;;;;;2.75;2.65;;;18.30;99.90;;;18.71;74.17;101904.19;4935890;29;20091;-68
2021/07/23 07:01:51;;;;;;;2.92;2.83;;;18.30;99.90;;;18.55;74.05;101902.72;4935938;29;20054;-68
2021/07/23 07:04:20;;;;;;;2.92;2.75;;;18.20;99.90;;;18.53;74.17;101898.31;4935521;29;20044;-68
2021/07/23 07:06:48;;;;;;;2.95;2.85;;;18.10;99.90;;;18.01;74.45;101786.84;4935887;29;20510;-68
2021/07/23 07:09:16;;;;;;;3.83;3.63;;;18.20;99.90;;;18.67;74.51;101905.16;4935805;29;20095;-68
2021/07/23 07:11:45;;;;;;;3.38;3.25;;;18.20;99.90;;;18.73;73.35;101905.03;4935731;29;20449;-68
2021/07/23 07:14:13;;;;;;;2.67;2.58;;;18.30;99.90;;;19.04;73.63;101912.41;4935816;29;20070;-68
2021/07/23 07:16:43;;;;;;;2.75;2.65;;;18.50;99.90;;;19.31;72.56;101919.81;4935822;29;20074;-68
2021/07/23 07:19:12;;;;;;;3.22;3.03;;;18.90;99.90;;;19.06;72.50;101915.94;4935870;29;20051;-68
2021/07/23 07:21:47;;;;;;;2.70;2.60;;;18.70;99.90;;;18.84;72.61;101900.31;4935821;29;20075;-68
2021/07/23 07:24:17;;;;;;;2.60;2.50;;;18.60;99.90;;;19.14;72.42;101917.53;4935730;29;20068;-68
2021/07/23 07:26:46;;;;;;;2.92;2.83;;;18.70;99.90;;;19.14;72.39;101922.00;4935810;29;20062;-68
2021/07/23 07:29:16;;;;;;;2.67;2.58;;;18.80;99.90;;;19.25;71.91;101912.78;4937062;29;20044;-68
2021/07/23 07:31:46;;;;;;;2.42;2.33;;;18.80;99.90;;;19.37;71.80;101909.88;4939298;29;20054;-68
2021/07/23 07:34:15;;;;;;;3.22;3.13;;;19.00;99.90;;;19.59;71.24;101900.34;4922012;29;20051;-69
2021/07/23 07:36:43;;;;;;;2.20;2.10;;;19.30;99.90;;;19.91;70.77;101917.44;4939253;29;20048;-68
2021/07/23 07:39:13;;;;;;;2.88;2.78;;;19.50;99.90;;;20.00;70.60;101893.03;4922867;29;20055;-68
2021/07/23 07:41:41;;;;;;;2.57;2.47;;;19.80;99.90;;;20.33;69.08;101917.22;4939503;29;20106;-69
2021/07/23 07:44:10;;;;;;;4.55;3.50;;;20.00;99.90;;;20.06;68.72;101917.94;4939412;29;20705;-68
2021/07/23 07:46:39;;;;;;;2.97;2.88;;;19.80;99.90;;;19.96;69.30;101908.34;4922162;29;20409;-68
2021/07/23 07:49:08;;;;;;;2.92;2.83;;;19.60;99.90;;;20.05;69.17;101893.78;4922461;29;20052;-68
2021/07/23 07:51:37;;;;;;;2.53;2.43;;;19.80;99.90;;;20.26;68.97;101921.00;4921813;29;20051;-68
2021/07/23 07:54:05;;;;;;;2.70;2.60;;;19.80;99.90;;;20.22;68.87;101911.25;4922561;29;20375;-68
2021/07/23 07:56:34;;;;;;;2.92;2.83;;;19.80;99.90;;;19.44;68.67;101779.06;4938807;29;20102;-68
2021/07/23 07:59:02;;;;;;;5.15;4.18;;;19.80;99.90;;;19.86;69.63;101914.88;4939518;29;20058;-67
2021/07/23 08:01:31;;;;;;;4.95;4.38;;;19.60;99.90;;;19.21;70.37;101904.84;4921656;29;20055;-69
2021/07/23 08:03:59;;;;;;;2.70;2.60;;;19.00;99.90;;;19.01;71.66;101909.81;4938465;29;20106;-68
2021/07/23 08:06:33;;;;;;;19.42;3.25;;;18.70;99.90;;;18.93;72.48;101910.84;4938566;29;20122;-68
2021/07/23 08:09:05;;;;;;;3.80;3.50;;;18.50;99.90;;;19.09;73.26;101910.47;4938333;29;20044;-68
2021/07/23 08:11:33;;;;;;;4.07;3.80;;;18.60;99.90;;;18.99;71.88;101909.81;4921426;29;20452;-68
2021/07/23 08:14:02;;;;;;;3.08;2.88;;;18.50;99.90;;;18.86;72.88;101909.22;4938510;29;20044;-68
2021/07/23 08:16:31;;;;;;;3.38;3.20;;;18.50;99.90;;;18.89;72.88;101903.78;4938198;29;20047;-68
2021/07/23 08:19:00;;;;;;;2.80;2.70;;;18.40;99.90;;;19.09;72.46;101905.13;4938535;29;20055;-68
2021/07/23 08:21:31;;;;;;;2.70;2.60;;;18.60;99.90;;;19.28;72.17;101903.81;4938382;29;20462;-68
2021/07/23 08:24:01;;;;;;;;;;;18.80;99.90;;;19.16;73.30;101910.34;4938770;29;20126;-68
2021/07/23 08:26:30;;;;;;;3.17;3.08;;;18.80;99.90;;;18.79;73.26;101906.69;4938382;29;19926;-68
2021/07/23 08:28:59;;;;;;;5.95;4.13;;;18.50;99.90;;;18.76;73.87;101902.28;4938194;29;20048;-68
2021/07/23 08:31:27;;;;;;;3.47;3.35;;;18.40;99.90;;;18.68;73.78;101897.97;4937945;29;20082;-69
2021/07/23 08:33:56;;;;;;;7.97;4.55;;;18.30;99.90;;;18.71;73.97;101890.78;4937857;29;20135;-68
2021/07/23 08:36:24;;;;;;;4.43;3.80;;;18.30;99.90;;;18.79;74.21;101899.50;4937836;29;20063;-68
2021/07/23 08:38:54;;;;;;;2.95;2.85;;;18.30;99.90;;;18.78;73.81;101889.72;4937995;29;20071;-68
2021/07/23 08:41:23;;;;;;;3.13;2.92;;;18.40;99.90;;;18.89;75.95;101878.78;4938258;29;20057;-68
2021/07/23 08:43:51;;;;;;;3.13;2.92;;;18.50;99.90;;;18.88;73.75;101879.69;4937917;29;20044;-68
2021/07/23 08:46:19;;;;;;;3.13;3.03;;;18.60;99.90;;;19.01;74.17;101891.03;4937883;29;20048;-68
2021/07/23 08:48:48;;;;;;;2.60;2.50;;;18.60;99.90;;;19.46;73.22;101893.53;4920555;29;20107;-69
2021/07/23 08:51:20;;;;;;;2.75;2.65;;;19.00;99.90;;;19.49;72.46;101890.75;4937527;29;20502;-68
2021/07/23 08:53:49;;;;;;;3.00;2.90;;;19.10;99.90;;;19.68;71.53;101881.34;4920661;29;20059;-68
2021/07/23 08:56:18;;;;;;;3.70;3.50;;;19.40;99.90;;;19.68;70.77;101867.03;4937574;29;20059;-68
2021/07/23 08:58:47;;;;;;;2.40;2.30;;;19.50;99.90;;;19.97;70.36;101875.19;4937785;29;20075;-68
2021/07/23 09:01:15;;;;;;;3.28;3.08;;;19.60;99.90;;;19.07;70.73;101768.38;4937444;29;20051;-68
2021/07/23 09:03:44;;;;;;;3.35;3.15;;;19.40;99.90;;;19.27;71.84;101865.34;4937284;29;20060;-68
2021/07/23 09:06:18;;;;;;;3.00;2.90;;;19.10;99.90;;;19.21;70.87;101785.00;4937668;29;20070;-68
2021/07/23 09:08:47;;;;;;;2.75;2.65;;;19.30;99.90;;;19.84;70.62;101841.50;4937628;29;20460;-68
2021/07/23 09:11:25;;;;;;;2.77;2.67;;;19.50;99.90;;;20.29;69.98;101855.50;4920539;29;20047;-68
2021/07/23 09:14:11;;;;;;;3.00;2.90;;;19.90;99.90;;;20.36;69.56;101822.19;4937252;29;20055;-68
2021/07/23 09:16:40;;;;;;;2.85;2.75;;;20.20;99.90;;;20.26;68.18;101852.94;4937374;29;20066;-68
2021/07/23 09:19:10;;;;;;;4.47;4.15;;;20.10;99.90;;;20.20;68.30;101832.50;4920195;29;20138;-68
2021/07/23 09:21:40;;;;;;;2.85;2.75;;;20.10;99.90;;;20.16;69.08;101849.59;4920235;29;20524;-68
2021/07/23 09:24:09;;;;;;;4.03;3.78;;;19.80;99.90;;;20.14;69.99;101839.81;4919920;29;20103;-68
2021/07/23 09:26:44;;;;;;;4.28;4.00;;;19.80;99.90;;;19.95;71.26;101842.13;4920080;29;20052;-68
2021/07/23 09:29:14;;;;;;;2.65;2.55;;;19.60;99.90;;;20.10;70.34;101840.81;4937274;29;20040;-67
2021/07/23 09:32:06;;;;;;;3.95;3.65;;;19.70;99.90;;;19.92;71.03;101839.50;4936897;29;20047;-68
2021/07/23 09:34:35;;;;;;;3.70;3.50;;;19.50;99.90;;;19.55;70.12;101793.97;4937188;29;20051;-68
2021/07/23 09:37:08;;;;;;;2.80;2.70;;;19.50;99.90;;;20.04;71.70;101844.56;4937031;29;20052;-68
2021/07/23 09:39:57;;;;;;;4.55;4.15;;;19.60;99.90;;;19.59;70.17;101840.41;4919948;29;20066;-68
2021/07/23 09:42:28;;;;;;;3.67;3.42;;;19.30;99.90;;;19.53;71.50;101845.97;4937052;29;20071;-68
2021/07/23 09:45:02;;;;;;;7.53;4.80;;;19.20;99.90;;;19.47;70.99;101843.44;4936998;29;20083;-68
2021/07/23 09:47:30;;;;;;;3.15;2.90;;;19.20;99.90;;;19.51;70.97;101837.91;4936950;29;20067;-68
2021/07/23 09:50:02;;;;;;;6.55;4.28;;;19.20;99.90;;;19.55;70.78;101868.28;4936821;29;20095;-69
2021/07/23 09:52:33;;;;;;;4.85;4.47;;;19.20;99.90;;;19.34;70.64;101882.19;4935994;29;20560;-68
2021/07/23 09:55:01;;;;;;;;;;;19.00;99.90;;;19.28;71.93;101866.25;4936892;29;20048;-68
2021/07/23 09:57:32;;;;;;;3.35;3.15;;;18.90;99.90;;;19.34;72.47;101852.69;4936721;29;19923;-68
2021/07/23 10:00:05;;;;;;;2.83;2.72;;;19.00;99.90;;;19.53;72.53;101849.50;4919725;29;20068;-68
2021/07/23 10:02:42;;;;;;;4.97;4.55;;;19.10;99.90;;;19.84;70.84;101851.41;4936593;29;20134;-68
2021/07/23 10:05:14;;;;;;;3.30;3.20;;;19.40;99.90;;;19.93;70.20;101843.97;4936271;29;20417;-68
2021/07/23 10:07:52;;;;;;;9.63;4.72;;;19.50;99.90;;;19.85;70.31;101840.59;4936307;29;20119;-68
2021/07/23 10:10:22;;;;;;;5.07;4.68;;;19.50;99.90;;;19.52;71.00;101838.81;4936148;29;20040;-68
2021/07/23 10:12:54;;;;;;;5.28;4.72;;;19.20;99.90;;;19.53;71.33;101835.22;4936154;29;20071;-68
2021/07/23 10:15:23;;;;;;;6.65;5.00;;;19.10;99.90;;;19.59;72.49;101837.72;4936088;29;20043;-68
2021/07/23 10:17:52;;;;;;;4.05;3.83;;;19.20;99.90;;;19.60;72.88;101826.06;4936354;29;20047;-68
2021/07/23 10:20:21;;;;;;;5.45;4.65;;;19.20;99.90;;;19.89;71.38;101834.25;4936247;29;20039;-68
2021/07/23 10:22:52;;;;;;;2.50;2.40;;;19.50;99.90;;;20.20;71.41;101826.22;4936315;29;20048;-68
2021/07/23 10:25:24;;;;;;;3.22;3.13;;;19.70;99.90;;;20.51;69.29;101832.47;4936682;29;20068;-68
2021/07/23 10:27:54;;;;;;;2.88;2.78;;;20.10;99.90;;;20.31;69.94;101802.59;4919196;29;20051;-68
2021/07/23 10:30:42;;;;;;;4.63;4.20;;;20.10;99.90;;;20.14;69.77;101816.50;4936249;29;20465;-68